DNA weather

Kadena Air Base
Okinawa Prefecture, Japan

Public forecast

Using degrees Celsius for public forecast. Weather courtesy of forecast.io.

METAR (pilot weather report)

Report is more than 2 hours old.

Retrieved 2019/03/26 11:56 UTC (3 hours ago):

RODN 261156Z AUTO 04007KT 10SM CLR 14/11 A3018 RMK AO2 SLP227 T01440112 10233 20144 52018 $

TAF (pilot weather forecast)

Retrieved 2019/03/26 08:39 UTC (6 hours ago):

TAF RODN 260800Z 2608/2714 02009KT 9999 SCT035 QNH3010INS BECMG 2623/2624 15012G18KT 9999 BKN035 QNH3004INS TX25/2705Z TN19/2621Z